Airfield :
LOGIN :

Register | Disclaimer

   EN    FR    IT 

 










Legend :    VFR   Marginal VFR   IFR   Intensive IFR   Very Intensive IFR
Visi :
Ceiling :
>= 8 km
>= 3000ft
5 to 8 km
1000 to 3000 ft
1500m to 5 km
500 to 1000 ft
800 to 1500m
200 to 500 ft
< 800m
< 200 ft
Symbols :   Thunderstorms  Fog  Heavy snow  Heavy precipitations  Wind > 20 kt
SIGMETs :     Misc.  Thunderstorms  Icing  Turbulence  Mountain Waves  Volcanic Ashes






- Airport Elevation : 353 ft
- IATA code : ZAG


LDZA - Zagreb Pleso

CURRENT METAR :
  • 171800Z VRB01KT 4000 -FZDZ BR OVC004 M00/M01 Q1027 NOSIG

EXPIRED METARs :
  • 171730Z 15003KT 110V220 4000 -FZDZ BR OVC004 M00/M01 Q1027 NOSIG
  • 171700Z 13004KT 080V160 4000 -FZDZ BR OVC003 M00/M01 Q1026 NOSIG
  • 171630Z 09003KT 050V120 4000 BR OVC003 M00/M01 Q1027 NOSIG
  • 171600Z 10004KT 070V130 4000 BR OVC004 M00/M01 Q1027 NOSIG
  • 171530Z VRB01KT 4000 BR OVC003 00/M00 Q1026 NOSIG

TAF TAF LDZA
Valid from the 17 at 18:00 until the 18 at 18:00 UTC


171725Z 1718/1818 10004KT 4000 BR OVC004 TX01/1813Z TNM03/1805Z
TEMPO 1718/1810 1000 -FZDZ BR OVC002
BECMG 1809/1811 6000 NSW OVC010
TEMPO 1816/1818 2000 -SN OVC005
ATIS : +385 1 6-259-214



MET'MAP, your aeronautical weather chart ! - Copyright ORBIFLY December 2007 - Disclaimer

ORBIFLY MET'MAP TEAM :

Programming & Development : Alexandra Zaïnal
Concept & original design : Baudouin d'Aumeries
Assistance for programming : Marc-Olivier Méhu
Technical & hardware support : Manuel Goepfert

Contact : metmap@orbifly.com




SOURCES & CREDITS :

   NOAA